Time;durP1;ratioP1;P1;durP2;ratioP2;P2;SDS_P1;SDS_P2;PMS_P1;PMS_P2;Temp;Humidity;BMP_temperature;BMP_pressure;BME280_temperature;BME280_humidity;BME280_pressure;Samples;Min_cycle;Max_cycle;Signal;HPM_P1;HPM_P2
2021/06/06 00:00:54;;;;;;;76.37;40.13;;;;;;;16.17;100.00;100879.31;2056302;28;20541;-79
2021/06/06 00:01:55;;;;;;;76.43;40.40;;;;;;;16.18;100.00;100874.88;2055807;28;20121;-79
2021/06/06 00:02:56;;;;;;;74.53;38.77;;;;;;;16.16;100.00;100871.50;2056153;28;20478;-81
2021/06/06 00:03:58;;;;;;;71.70;39.10;;;;;;;16.17;100.00;100868.78;2056130;28;20434;-79
2021/06/06 00:04:58;;;;;;;75.05;39.88;;;;;;;16.19;100.00;100876.59;2055840;28;20450;-79
2021/06/06 00:06:12;;;;;;;75.00;40.53;;;;;;;16.17;100.00;100879.31;2056054;28;20030;-78
2021/06/06 00:07:13;;;;;;;77.80;40.80;;;;;;;16.15;100.00;100875.03;2056220;28;20026;-79
2021/06/06 00:08:14;;;;;;;70.72;38.72;;;;;;;16.14;100.00;100868.06;2056057;28;20026;-79
2021/06/06 00:09:17;;;;;;;73.37;39.33;;;;;;;16.14;100.00;100873.31;2056208;28;20642;-79
2021/06/06 00:10:17;;;;;;;76.68;39.30;;;;;;;16.17;100.00;100873.16;2055210;28;20783;-79
2021/06/06 00:11:30;;;;;;;68.23;39.10;;;;;;;16.15;100.00;100869.78;2055636;28;20035;-79
2021/06/06 00:12:31;;;;;;;69.30;37.92;;;;;;;16.17;100.00;100870.53;2056064;28;20042;-81
2021/06/06 00:13:32;;;;;;;70.40;37.72;;;;;;;16.18;100.00;100872.25;2056061;28;20026;-81
2021/06/06 00:14:36;;;;;;;76.13;39.95;;;;;;;16.20;100.00;100874.84;2055919;28;20401;-81
2021/06/06 00:15:36;;;;;;;71.72;39.13;;;;;;;16.17;100.00;100870.53;2055841;28;20493;-77
2021/06/06 00:16:44;;;;;;;80.22;41.00;;;;;;;16.16;100.00;100871.50;2056084;28;20058;-78
2021/06/06 00:17:44;;;;;;;74.78;40.05;;;;;;;16.15;100.00;100875.88;2056103;28;20042;-78
2021/06/06 00:18:44;;;;;;;72.97;40.90;;;;;;;16.16;100.00;100872.31;2056078;28;20110;-78
2021/06/06 00:19:45;;;;;;;68.77;38.27;;;;;;;16.14;100.00;100874.16;2056141;28;20603;-78
2021/06/06 00:20:45;;;;;;;77.63;39.60;;;;;;;16.20;100.00;100878.31;2056045;28;20596;-78
2021/06/06 00:21:46;;;;;;;70.13;39.23;;;;;;;16.16;100.00;100871.50;2056258;28;20026;-78
2021/06/06 00:22:46;;;;;;;71.85;40.15;;;;;;;16.15;100.00;100875.88;2056101;28;20462;-79
2021/06/06 00:23:46;;;;;;;73.30;39.40;;;;;;;16.15;100.00;100875.88;2056264;28;20029;-79
2021/06/06 00:24:47;;;;;;;84.37;41.53;;;;;;;16.15;100.00;100875.88;2056033;28;20026;-80
2021/06/06 00:25:47;;;;;;;82.50;41.07;;;;;;;16.14;100.00;100868.91;2056112;28;20548;-79
2021/06/06 00:26:48;;;;;;;77.10;40.40;;;;;;;16.15;100.00;100875.03;2056062;28;20034;-78
2021/06/06 00:27:48;;;;;;;78.10;40.53;;;;;;;16.15;100.00;100869.78;2056287;28;20031;-78
2021/06/06 00:28:48;;;;;;;87.30;42.27;;;;;;;16.12;100.00;100870.72;2056116;28;20023;-81
2021/06/06 00:29:49;;;;;;;83.47;41.67;;;;;;;16.11;100.00;100871.69;2055538;28;20065;-82
2021/06/06 00:30:50;;;;;;;84.97;42.83;;;;;;;16.11;100.00;100879.56;2055464;28;20418;-80
2021/06/06 00:31:50;;;;;;;79.27;41.30;;;;;;;16.11;100.00;100874.31;2056065;28;20089;-79
2021/06/06 00:32:51;;;;;;;76.40;39.90;;;;;;;16.11;100.00;100881.34;2056170;28;20429;-79
2021/06/06 00:33:52;;;;;;;64.13;37.33;;;;;;;16.09;100.00;100883.16;2055962;28;20698;-79
2021/06/06 00:34:53;;;;;;;;;;;;;;;16.09;100.00;100873.53;2056634;28;20278;-81
2021/06/06 00:35:54;;;;;;;54.80;34.60;;;;;;;16.11;100.00;100879.56;2055902;28;19921;-80
2021/06/06 00:36:55;;;;;;;49.97;32.63;;;;;;;16.10;100.00;100879.63;2056141;28;20119;-80
2021/06/06 00:37:55;;;;;;;56.35;34.30;;;;;;;16.10;100.00;100883.13;2056127;28;20393;-79
2021/06/06 00:38:56;;;;;;;51.93;34.00;;;;;;;16.10;100.00;100882.25;2056044;28;20066;-78
2021/06/06 00:39:56;;;;;;;43.80;30.90;;;;;;;16.10;100.00;100883.13;2056195;28;20037;-78
2021/06/06 00:40:58;;;;;;;43.10;30.50;;;;;;;16.07;100.00;100885.88;2056302;28;20031;-80
2021/06/06 00:41:59;;;;;;;45.83;30.98;;;;;;;16.06;100.00;100886.78;2056258;28;20031;-80
2021/06/06 00:43:00;;;;;;;45.50;32.60;;;;;;;16.09;100.00;100880.53;2055922;28;20029;-80
2021/06/06 00:44:00;;;;;;;49.50;33.07;;;;;;;16.07;100.00;100877.97;2054180;28;20542;-80
2021/06/06 00:45:01;;;;;;;42.77;31.00;;;;;;;16.04;100.00;100886.00;2056165;28;20406;-78
2021/06/06 00:46:02;;;;;;;38.15;29.98;;;;;;;16.03;100.00;100886.91;2056191;28;20031;-81
2021/06/06 00:47:03;;;;;;;48.53;31.77;;;;;;;16.00;100.00;100887.06;2056335;28;20027;-80
2021/06/06 00:48:06;;;;;;;44.78;32.38;;;;;;;16.01;100.00;100884.34;2056076;28;20428;-81
2021/06/06 00:49:07;;;;;;;42.03;31.02;;;;;;;16.02;100.00;100883.44;2056318;28;20027;-81
2021/06/06 00:50:16;;;;;;;42.95;30.33;;;;;;;16.02;100.00;100882.56;2056285;28;20030;-81
2021/06/06 00:51:24;;;;;;;40.50;30.30;;;;;;;15.98;100.00;100884.47;2056343;28;20485;-80
2021/06/06 00:52:24;;;;;;;43.97;29.95;;;;;;;16.02;100.00;100879.94;2056032;28;20038;-80
2021/06/06 00:53:48;;;;;;;43.40;30.48;;;;;;;15.96;100.00;100885.47;2056217;28;20528;-80
2021/06/06 00:54:50;;;;;;;42.42;30.25;;;;;;;15.91;100.00;100884.81;2056251;28;20039;-80
2021/06/06 00:55:51;;;;;;;41.40;30.85;;;;;;;15.95;100.00;100886.38;2056330;28;20030;-80
2021/06/06 00:56:56;;;;;;;44.97;31.42;;;;;;;15.93;100.00;100881.19;2057679;28;20405;-79
2021/06/06 00:57:59;;;;;;;38.20;29.77;;;;;;;15.95;100.00;100881.13;2057816;28;20034;-79
2021/06/06 00:59:01;;;;;;;39.35;28.65;;;;;;;15.94;100.00;100882.03;2057820;28;20030;-80
2021/06/06 01:00:11;;;;;;;42.03;30.48;;;;;;;15.93;100.00;100881.19;2058124;28;20506;-80
2021/06/06 01:01:11;;;;;;;43.20;29.90;;;;;;;15.91;100.00;100882.19;2058735;28;20035;-80
2021/06/06 01:02:12;;;;;;;41.70;29.58;;;;;;;15.91;100.00;100882.19;2057786;28;20046;-80
2021/06/06 01:03:13;;;;;;;45.20;30.42;;;;;;;15.91;100.00;100882.19;2057113;28;20054;-80
2021/06/06 01:04:14;;;;;;;44.20;29.33;;;;;;;15.97;100.00;100881.91;2057080;28;20210;-80
2021/06/06 01:05:23;;;;;;;43.33;29.55;;;;;;;15.87;100.00;100882.31;2057751;28;20555;-79
2021/06/06 01:06:31;;;;;;;42.42;29.77;;;;;;;15.86;100.00;100877.97;2057547;28;20042;-80
2021/06/06 01:07:31;;;;;;;42.33;29.35;;;;;;;15.86;100.00;100877.97;2057840;28;20038;-80
2021/06/06 01:08:34;;;;;;;47.63;31.47;;;;;;;15.84;100.00;100884.22;2057468;28;20025;-80
2021/06/06 01:09:35;;;;;;;47.28;31.30;;;;;;;15.85;100.00;100878.88;2057344;28;20018;-80
2021/06/06 01:10:36;;;;;;;46.67;31.65;;;;;;;15.88;100.00;100885.78;2056645;28;20019;-80
2021/06/06 01:12:20;;;;;;;45.63;31.08;;;;;;;15.95;100.00;100886.38;2056882;28;20031;-80
2021/06/06 01:13:28;;;;;;;47.35;30.23;;;;;;;15.87;100.00;100887.56;2055407;28;20027;-79
2021/06/06 01:14:44;;;;;;;41.05;29.08;;;;;;;15.87;100.00;100884.94;2057621;28;20426;-79
2021/06/06 01:15:47;;;;;;;38.63;28.70;;;;;;;15.84;100.00;100881.59;2057687;28;20030;-79
2021/06/06 01:17:02;;;;;;;39.55;28.40;;;;;;;15.85;100.00;100876.25;2057327;28;20038;-79
2021/06/06 01:18:40;;;;;;;36.53;26.98;;;;;;;15.81;100.00;100879.91;2057668;28;20030;-80
2021/06/06 01:19:55;;;;;;;37.95;26.27;;;;;;;15.76;100.00;100881.84;2048301;29;20041;-80
2021/06/06 01:21:15;;;;;;;37.90;26.85;;;;;;;15.71;100.00;100879.41;2057348;28;20110;-79
2021/06/06 01:22:44;;;;;;;40.80;28.73;;;;;;;15.72;100.00;100881.13;2057333;28;20030;-78
2021/06/06 01:24:13;;;;;;;35.47;27.95;;;;;;;15.72;100.00;100881.13;2057393;28;20154;-78
2021/06/06 01:25:34;;;;;;;37.22;27.17;;;;;;;15.69;100.00;100876.00;2057292;28;20106;-78
2021/06/06 01:26:40;;;;;;;38.50;27.58;;;;;;;15.73;100.00;100879.34;2057393;28;20042;-79
2021/06/06 01:27:47;;;;;;;35.72;27.00;;;;;;;15.68;100.00;100876.91;2057254;28;20033;-79
2021/06/06 01:28:55;;;;;;;35.03;26.55;;;;;;;15.69;100.00;100878.63;2056585;28;20496;-79
2021/06/06 01:30:03;;;;;;;36.83;26.10;;;;;;;15.67;100.00;100876.97;2056530;28;20023;-79
2021/06/06 01:31:05;;;;;;;32.60;24.95;;;;;;;15.65;100.00;100870.91;2056564;28;20038;-80
2021/06/06 01:32:29;;;;;;;38.80;25.83;;;;;;;15.64;100.00;100871.84;2057165;28;20030;-79
2021/06/06 01:33:37;;;;;;;31.80;25.38;;;;;;;15.67;100.00;100877.84;2057164;28;20027;-80
2021/06/06 01:34:40;;;;;;;33.63;25.67;;;;;;;15.66;100.00;100872.63;2057270;28;20023;-79
2021/06/06 01:35:51;;;;;;;34.58;24.73;;;;;;;15.67;100.00;100869.97;2057141;28;20107;-79
2021/06/06 01:37:07;;;;;;;34.88;23.80;;;;;;;15.67;100.00;100871.72;2057211;28;20054;-79
2021/06/06 01:38:31;;;;;;;31.73;23.90;;;;;;;15.64;100.00;100875.34;2057158;28;20109;-80
2021/06/06 01:39:42;;;;;;;35.17;25.33;;;;;;;15.63;100.00;100867.50;2056604;28;20142;-80
2021/06/06 01:40:46;;;;;;;32.38;24.45;;;;;;;15.62;100.00;100871.06;2057134;28;20051;-80
2021/06/06 01:41:52;;;;;;;35.00;24.50;;;;;;;15.61;100.00;100864.09;2056781;28;20030;-80
2021/06/06 01:42:58;;;;;;;30.63;24.48;;;;;;;15.59;100.00;100860.66;2056975;28;20022;-79
2021/06/06 01:43:58;;;;;;;32.35;25.08;;;;;;;15.55;100.00;100867.81;2056675;28;20522;-79
2021/06/06 01:45:07;;;;;;;31.57;25.27;;;;;;;15.53;100.00;100865.25;2056690;28;20046;-80
2021/06/06 01:46:13;;;;;;;33.33;24.98;;;;;;;15.52;100.00;100866.19;2056998;28;20422;-79
2021/06/06 01:47:23;;;;;;;32.08;24.50;;;;;;;15.54;100.00;100864.31;2056983;28;20030;-79
2021/06/06 01:48:24;;;;;;;32.15;24.63;;;;;;;15.56;100.00;100862.50;2056916;28;20111;-79
2021/06/06 01:49:25;;;;;;;34.85;25.25;;;;;;;15.57;100.00;100866.84;2056102;28;20132;-79
2021/06/06 01:50:30;;;;;;;;;;;;;;;15.53;100.00;100867.88;2056616;28;20940;-80
2021/06/06 01:51:40;;;;;;;32.17;23.42;;;;;;;15.55;100.00;100866.03;2063914;28;19918;-80
2021/06/06 01:52:42;;;;;;;32.35;24.60;;;;;;;15.56;100.00;100867.75;2056926;28;20089;-80
2021/06/06 01:53:46;;;;;;;32.20;24.25;;;;;;;15.54;100.00;100864.31;2056985;28;20026;-80
2021/06/06 01:54:46;;;;;;;34.83;24.63;;;;;;;15.52;100.00;100863.56;2056875;28;20026;-80
2021/06/06 01:55:54;;;;;;;33.25;24.77;;;;;;;15.53;100.00;100862.63;2056894;28;20019;-79
2021/06/06 01:56:54;;;;;;;31.67;24.00;;;;;;;15.51;100.00;100856.59;2056967;28;20458;-79
2021/06/06 01:57:58;;;;;;;32.60;24.33;;;;;;;15.48;100.00;100861.97;2056557;28;20081;-79
2021/06/06 01:59:03;;;;;;;35.17;23.75;;;;;;;15.50;100.00;100867.16;2056395;28;20041;-79
2021/06/06 02:00:10;;;;;;;33.20;25.00;;;;;;;15.50;100.00;100862.75;2056824;28;20030;-79
2021/06/06 02:01:15;;;;;;;35.30;23.55;;;;;;;15.50;100.00;100856.63;2056886;28;20712;-79
2021/06/06 02:02:16;;;;;;;31.27;23.45;;;;;;;15.50;100.00;100864.50;2056991;28;20026;-79
2021/06/06 02:03:17;;;;;;;33.72;23.77;;;;;;;15.47;100.00;100860.25;2056020;28;20031;-79
2021/06/06 02:04:18;;;;;;;38.53;24.13;;;;;;;15.45;100.00;100858.59;2056445;28;20110;-79
2021/06/06 02:05:19;;;;;;;34.03;23.52;;;;;;;15.43;100.00;100860.44;2056856;28;20030;-79
2021/06/06 02:06:24;;;;;;;30.42;23.33;;;;;;;15.45;100.00;100859.44;2056971;28;20031;-79
2021/06/06 02:07:30;;;;;;;35.22;24.38;;;;;;;15.44;100.00;100862.16;2055481;28;20039;-80
2021/06/06 02:08:33;;;;;;;32.88;23.30;;;;;;;15.45;100.00;100862.06;2056222;28;20668;-79
2021/06/06 02:09:38;;;;;;;31.00;23.05;;;;;;;15.39;100.00;100860.53;2056136;28;20086;-80
2021/06/06 02:10:51;;;;;;;32.08;23.80;;;;;;;15.42;100.00;100856.97;2056205;28;20029;-80
2021/06/06 02:11:55;;;;;;;36.17;25.52;;;;;;;15.41;100.00;100857.88;2056696;28;20035;-80
2021/06/06 02:13:28;;;;;;;34.35;24.83;;;;;;;15.39;100.00;100860.53;2056918;28;20603;-80
2021/06/06 02:14:41;;;;;;;37.33;25.15;;;;;;;15.40;100.00;100861.41;2055859;28;20072;-81
2021/06/06 02:15:42;;;;;;;38.75;24.90;;;;;;;15.39;100.00;100857.06;2049746;28;20073;-80
2021/06/06 02:16:45;;;;;;;37.13;24.70;;;;;;;15.39;100.00;100859.69;2056358;28;20070;-80
2021/06/06 02:17:46;;;;;;;33.33;24.70;;;;;;;15.39;100.00;100862.31;2056727;28;20026;-81
2021/06/06 02:18:46;;;;;;;38.23;25.90;;;;;;;15.37;100.00;100859.78;2056953;28;20034;-81
2021/06/06 02:19:47;;;;;;;36.43;25.20;;;;;;;15.36;100.00;100865.94;2056872;28;20509;-81
2021/06/06 02:20:49;;;;;;;37.13;25.63;;;;;;;15.34;100.00;100866.91;2056938;28;20061;-82
2021/06/06 02:21:49;;;;;;;36.97;25.55;;;;;;;15.36;100.00;100863.31;2056675;28;20030;-81
2021/06/06 02:22:49;;;;;;;37.47;25.60;;;;;;;15.35;100.00;100858.97;2056859;28;20031;-81
2021/06/06 02:23:50;;;;;;;38.95;26.55;;;;;;;15.35;100.00;100863.34;2056960;28;20058;-81
2021/06/06 02:24:52;;;;;;;39.85;25.70;;;;;;;15.37;100.00;100857.16;2057013;28;20038;-81
2021/06/06 02:26:00;;;;;;;39.70;26.15;;;;;;;15.33;100.00;100859.97;2056112;28;20053;-81
2021/06/06 02:27:05;;;;;;;38.97;26.15;;;;;;;15.35;100.00;100860.72;2056217;28;20054;-81
2021/06/06 02:28:23;;;;;;;38.75;26.45;;;;;;;15.36;100.00;100859.81;2063735;28;20483;-79
2021/06/06 02:29:57;;;;;;;38.33;26.00;;;;;;;15.34;100.00;100859.00;2056019;28;20121;-80
2021/06/06 02:31:13;;;;;;;36.65;25.48;;;;;;;15.33;100.00;100859.97;2056711;28;20023;-82
2021/06/06 02:32:41;;;;;;;38.38;26.63;;;;;;;15.29;100.00;100859.19;2056762;28;20094;-82
2021/06/06 02:34:05;;;;;;;37.20;25.90;;;;;;;15.29;100.00;100855.72;2057024;28;20035;-79
2021/06/06 02:35:27;;;;;;;37.25;25.85;;;;;;;15.30;100.00;100853.03;2056338;28;20038;-79
2021/06/06 02:36:29;;;;;;;36.53;23.95;;;;;;;15.30;100.00;100847.78;2056547;28;20031;-79
2021/06/06 02:37:40;;;;;;;39.55;26.55;;;;;;;15.29;100.00;100853.94;2057007;28;20027;-81
2021/06/06 02:38:41;;;;;;;41.25;26.52;;;;;;;15.31;100.00;100852.13;2056624;28;20027;-81
2021/06/06 02:39:47;;;;;;;42.03;27.50;;;;;;;15.30;100.00;100849.56;2057261;28;20022;-82
2021/06/06 02:41:00;;;;;;;41.35;27.45;;;;;;;15.30;100.00;100852.19;2057587;28;20088;-80
2021/06/06 02:42:07;;;;;;;43.67;27.35;;;;;;;15.31;100.00;100853.91;2057730;28;20019;-80
2021/06/06 02:43:40;;;;;;;40.65;27.48;;;;;;;15.32;100.00;100847.75;2057017;28;20027;-81
2021/06/06 02:44:52;;;;;;;44.35;27.58;;;;;;;15.30;100.00;100852.19;2041241;28;20044;-80
2021/06/06 02:45:57;;;;;;;40.28;26.73;;;;;;;15.25;100.00;100849.75;2057422;28;20039;-79
2021/06/06 02:47:00;;;;;;;40.85;26.60;;;;;;;15.24;100.00;100851.50;2056862;28;20078;-77
2021/06/06 02:48:05;;;;;;;40.50;27.92;;;;;;;15.28;100.00;100852.25;2057116;28;20022;-77
2021/06/06 02:49:11;;;;;;;44.65;27.42;;;;;;;15.30;100.00;100852.19;2056427;28;20061;-77
2021/06/06 02:50:17;;;;;;;43.67;27.05;;;;;;;15.29;100.00;100846.06;2056916;28;20122;-77
2021/06/06 02:51:21;;;;;;;40.85;26.35;;;;;;;15.23;100.00;100841.91;2056506;28;20367;-78
2021/06/06 02:52:44;;;;;;;39.17;26.58;;;;;;;15.27;100.00;100845.28;2055885;28;20034;-78
2021/06/06 02:53:57;;;;;;;43.28;26.88;;;;;;;15.30;100.00;100841.69;2055991;28;20053;-78
2021/06/06 02:55:00;;;;;;;42.45;27.05;;;;;;;15.28;100.00;100846.13;2056261;28;20038;-78
2021/06/06 02:56:08;;;;;;;42.50;26.75;;;;;;;15.32;100.00;100842.50;2056793;28;20026;-78
2021/06/06 02:57:12;;;;;;;45.92;30.25;;;;;;;15.30;100.00;100841.69;2056951;28;20122;-78
2021/06/06 02:58:43;;;;;;;40.78;27.75;;;;;;;15.31;100.00;100840.78;2056806;28;20473;-78
2021/06/06 02:59:46;;;;;;;40.75;27.60;;;;;;;15.31;100.00;100848.66;2056426;28;20401;-78
2021/06/06 03:00:54;;;;;;;49.28;29.05;;;;;;;15.31;100.00;100848.66;2056730;28;20027;-78
2021/06/06 03:02:05;;;;;;;54.85;36.47;;;;;;;15.33;100.00;100847.66;2056596;28;20027;-78
2021/06/06 03:03:15;;;;;;;45.33;32.85;;;;;;;15.32;100.00;100843.31;2056212;28;20038;-78
2021/06/06 03:04:20;;;;;;;42.33;27.73;;;;;;;15.31;100.00;100839.00;2056775;28;20105;-79
2021/06/06 03:05:24;;;;;;;44.10;27.52;;;;;;;15.30;100.00;100845.16;2056482;28;20030;-77
2021/06/06 03:06:48;;;;;;;43.13;26.90;;;;;;;15.27;100.00;100842.66;2056577;28;20031;-79
2021/06/06 03:07:53;;;;;;;45.30;26.58;;;;;;;15.29;100.00;100848.69;2056598;28;20456;-78
2021/06/06 03:08:54;;;;;;;43.22;27.52;;;;;;;15.29;100.00;100845.22;2055881;28;20046;-79
2021/06/06 03:09:54;;;;;;;45.07;28.63;;;;;;;15.29;100.00;100846.06;2055964;28;20042;-79
2021/06/06 03:10:56;;;;;;;40.17;26.37;;;;;;;15.29;100.00;100847.84;2056549;28;20051;-79
2021/06/06 03:12:02;;;;;;;42.22;27.77;;;;;;;15.31;100.00;100857.38;2056525;28;20031;-80
2021/06/06 03:13:34;;;;;;;43.40;28.15;;;;;;;15.31;100.00;100852.13;2056372;28;20121;-81
2021/06/06 03:14:39;;;;;;;41.92;27.30;;;;;;;15.31;100.00;100849.50;2055468;28;20046;-80
2021/06/06 03:15:45;;;;;;;44.03;27.52;;;;;;;15.31;100.00;100848.66;2055821;28;20491;-80
2021/06/06 03:17:06;;;;;;;44.50;28.48;;;;;;;15.31;100.00;100851.28;2056507;28;20106;-80
2021/06/06 03:18:09;;;;;;;39.72;27.95;;;;;;;15.28;100.00;100847.00;2056471;28;20019;-80
2021/06/06 03:19:09;;;;;;;44.08;27.60;;;;;;;15.31;100.00;100854.75;2055977;28;20023;-80
2021/06/06 03:20:15;;;;;;;46.35;28.10;;;;;;;15.28;100.00;100851.38;2048492;29;20027;-81
2021/06/06 03:21:23;;;;;;;45.65;28.13;;;;;;;15.29;100.00;100855.72;2053001;28;20027;-81
2021/06/06 03:22:29;;;;;;;42.05;26.83;;;;;;;15.31;100.00;100851.28;2054977;28;20027;-81
2021/06/06 03:23:31;;;;;;;45.67;28.83;;;;;;;15.32;100.00;100847.75;2056259;28;20019;-81
2021/06/06 03:24:36;;;;;;;43.90;27.83;;;;;;;15.31;100.00;100856.53;2056232;28;20031;-81
2021/06/06 03:25:45;;;;;;;45.83;28.08;;;;;;;15.31;100.00;100854.75;2055701;28;20027;-81
2021/06/06 03:26:50;;;;;;;40.72;26.55;;;;;;;15.25;100.00;100847.97;2055888;28;20023;-81
2021/06/06 03:27:50;;;;;;;43.38;28.05;;;;;;;15.29;100.00;100851.31;2055677;28;20109;-81
2021/06/06 03:28:53;;;;;;;42.17;27.45;;;;;;;15.33;100.00;100855.53;2055680;28;20413;-81
2021/06/06 03:30:03;;;;;;;40.20;26.48;;;;;;;15.22;100.00;100850.72;2053709;28;20219;-81
2021/06/06 03:31:08;;;;;;;43.42;26.30;;;;;;;15.28;100.00;100851.38;2053709;28;20051;-80
2021/06/06 03:32:11;;;;;;;46.08;26.55;;;;;;;15.28;100.00;100851.38;2055268;28;20030;-80
2021/06/06 03:33:15;;;;;;;43.25;27.75;;;;;;;15.27;100.00;100847.94;2048915;28;20130;-81
2021/06/06 03:34:16;;;;;;;40.95;26.70;;;;;;;15.28;100.00;100849.63;2056190;28;20393;-81
2021/06/06 03:35:17;;;;;;;49.42;28.08;;;;;;;15.25;100.00;100852.38;2053949;28;20037;-81
2021/06/06 03:36:22;;;;;;;45.93;28.13;;;;;;;15.23;100.00;100843.69;2056027;28;20035;-81
2021/06/06 03:37:24;;;;;;;43.85;26.45;;;;;;;15.24;100.00;100842.78;2055470;28;20030;-81
2021/06/06 03:38:24;;;;;;;44.50;26.70;;;;;;;15.24;100.00;100845.41;2054577;28;20022;-81
2021/06/06 03:39:28;;;;;;;47.80;27.73;;;;;;;15.27;100.00;100855.81;2055178;28;20113;-81
2021/06/06 03:40:31;;;;;;;52.88;27.95;;;;;;;15.26;100.00;100854.09;2055244;28;20681;-81
2021/06/06 03:41:32;;;;;;;50.05;28.70;;;;;;;15.25;100.00;100849.75;2055181;28;20034;-81
2021/06/06 03:42:33;;;;;;;50.08;29.52;;;;;;;15.25;100.00;100850.59;2050913;28;20486;-81
2021/06/06 03:43:34;;;;;;;44.78;27.80;;;;;;;15.25;100.00;100852.38;2053716;28;20038;-81
2021/06/06 03:44:34;;;;;;;47.22;28.02;;;;;;;15.29;100.00;100853.09;2056213;28;20426;-81
2021/06/06 03:45:35;;;;;;;54.87;29.00;;;;;;;15.28;100.00;100854.88;2055133;28;20027;-81
2021/06/06 03:46:37;;;;;;;44.90;27.60;;;;;;;15.25;100.00;100861.09;2055312;28;20023;-81
2021/06/06 03:47:38;;;;;;;45.05;28.42;;;;;;;15.23;100.00;100860.28;2054989;28;20026;-80
2021/06/06 03:48:40;;;;;;;45.15;28.35;;;;;;;15.27;100.00;100850.56;2055577;28;20026;-80
2021/06/06 03:49:40;;;;;;;53.95;30.90;;;;;;;15.30;100.00;100854.81;2056283;28;20042;-81
2021/06/06 03:50:42;;;;;;;46.20;29.00;;;;;;;15.30;100.00;100854.81;2056398;28;20490;-81
2021/06/06 03:51:43;;;;;;;50.22;29.67;;;;;;;15.31;100.00;100859.16;2056276;28;20019;-81
2021/06/06 03:52:44;;;;;;;50.60;30.13;;;;;;;15.32;100.00;100853.00;2056397;28;20041;-81
2021/06/06 03:53:45;;;;;;;53.97;30.93;;;;;;;15.33;100.00;100852.91;2055489;28;20050;-81
2021/06/06 03:54:45;;;;;;;54.88;30.88;;;;;;;15.34;100.00;100856.38;2055689;28;20030;-81
2021/06/06 03:55:45;;;;;;;52.80;29.87;;;;;;;15.35;100.00;100847.59;2056373;28;20038;-81
2021/06/06 03:56:47;;;;;;;55.70;30.83;;;;;;;15.36;100.00;100849.31;2056346;28;20026;-81
2021/06/06 03:57:49;;;;;;;49.40;29.45;;;;;;;15.35;100.00;100848.47;2056299;28;20031;-81
2021/06/06 03:58:49;;;;;;;59.38;30.80;;;;;;;15.38;100.00;100853.56;2056175;28;20033;-81
2021/06/06 03:59:51;;;;;;;49.43;29.57;;;;;;;15.38;100.00;100855.38;2055747;28;20565;-81
2021/06/06 04:00:52;;;;;;;50.38;29.40;;;;;;;15.35;100.00;100852.84;2055344;28;20042;-81
2021/06/06 04:01:53;;;;;;;49.53;29.40;;;;;;;15.37;100.00;100851.91;2056221;28;20019;-81
2021/06/06 04:02:53;;;;;;;48.28;29.83;;;;;;;15.40;100.00;100856.16;2056266;28;20038;-81
2021/06/06 04:03:54;;;;;;;53.25;30.00;;;;;;;15.41;100.00;100853.47;2056372;28;20466;-81
2021/06/06 04:04:54;;;;;;;57.67;31.63;;;;;;;15.42;100.00;100859.59;2055531;28;20109;-81
2021/06/06 04:05:54;;;;;;;53.43;31.33;;;;;;;15.43;100.00;100860.44;2055904;28;20130;-81
2021/06/06 04:06:55;;;;;;;50.07;31.60;;;;;;;15.43;100.00;100856.03;2056311;28;20026;-81
2021/06/06 04:07:56;;;;;;;57.57;31.60;;;;;;;15.43;100.00;100861.28;2056292;28;20031;-81
2021/06/06 04:08:57;;;;;;;58.33;31.75;;;;;;;15.45;100.00;100862.06;2056276;28;20922;-81
2021/06/06 04:09:57;;;;;;;53.53;32.63;;;;;;;15.39;100.00;100854.44;2055207;28;20042;-81
2021/06/06 04:10:57;;;;;;;56.07;33.87;;;;;;;15.44;100.00;100856.88;2055432;28;20106;-81
2021/06/06 04:11:58;;;;;;;64.63;34.40;;;;;;;15.39;100.00;100859.69;2056292;28;20061;-81
2021/06/06 04:12:58;;;;;;;62.13;33.17;;;;;;;15.36;100.00;100857.19;2055578;28;20577;-81
2021/06/06 04:13:59;;;;;;;55.22;32.72;;;;;;;15.39;100.00;100855.28;2055701;28;20512;-81
2021/06/06 04:14:59;;;;;;;72.50;37.97;;;;;;;15.42;100.00;100851.72;2056355;28;20031;-80
2021/06/06 04:15:59;;;;;;;82.97;43.23;;;;;;;15.40;100.00;100850.91;2056406;28;20030;-81
2021/06/06 04:17:00;;;;;;;66.87;36.97;;;;;;;15.45;100.00;100851.56;2056408;28;20501;-81
2021/06/06 04:18:11;;;;;;;68.77;37.27;;;;;;;15.48;100.00;100856.72;2056706;28;20031;-81
2021/06/06 04:19:11;;;;;;;55.55;33.47;;;;;;;15.51;100.00;100853.97;2056345;28;20098;-81
2021/06/06 04:20:12;;;;;;;54.23;32.20;;;;;;;15.50;100.00;100856.63;2056617;28;20393;-81
2021/06/06 04:21:17;;;;;;;54.28;31.67;;;;;;;15.45;100.00;100859.44;2056604;28;20053;-81
2021/06/06 04:22:17;;;;;;;57.53;32.05;;;;;;;15.44;100.00;100857.72;2049075;28;20050;-81
2021/06/06 04:23:19;;;;;;;59.43;32.73;;;;;;;15.49;100.00;100858.41;2048841;29;20106;-81
2021/06/06 04:24:20;;;;;;;53.85;31.52;;;;;;;15.45;100.00;100854.19;2056316;28;20050;-80
2021/06/06 04:25:22;;;;;;;64.30;36.23;;;;;;;15.45;100.00;100853.34;2056104;28;20041;-80
2021/06/06 04:26:24;;;;;;;85.57;45.63;;;;;;;15.44;100.00;100849.84;2055910;28;20065;-81
2021/06/06 04:27:24;;;;;;;;;;;;;;;15.49;100.00;100854.91;2048452;28;20533;-80
2021/06/06 04:28:25;;;;;;;78.22;41.15;;;;;;;15.51;100.00;100859.22;2047899;29;19917;-81
2021/06/06 04:29:25;;;;;;;79.80;41.97;;;;;;;15.51;100.00;100855.72;2047817;28;20031;-81
2021/06/06 04:30:25;;;;;;;85.20;45.30;;;;;;;15.54;100.00;100851.19;2047887;28;20534;-81
2021/06/06 04:31:26;;;;;;;79.30;43.80;;;;;;;15.51;100.00;100853.97;2049234;29;20031;-81
2021/06/06 04:32:27;;;;;;;86.53;44.70;;;;;;;15.56;100.00;100857.25;2049331;29;20038;-81
2021/06/06 04:33:27;;;;;;;86.75;45.22;;;;;;;15.57;100.00;100858.13;2051471;28;20031;-81
2021/06/06 04:34:28;;;;;;;90.77;47.40;;;;;;;15.56;100.00;100853.78;2056985;28;20074;-81
2021/06/06 04:35:28;;;;;;;85.00;44.87;;;;;;;15.56;100.00;100857.25;2056612;28;20054;-81
2021/06/06 04:36:29;;;;;;;86.43;46.13;;;;;;;15.56;100.00;100856.41;2056613;28;20065;-81
2021/06/06 04:37:29;;;;;;;89.83;46.83;;;;;;;15.56;100.00;100854.63;2057028;28;20034;-81
2021/06/06 04:38:30;;;;;;;88.63;47.50;;;;;;;15.56;100.00;100862.50;2056355;28;20031;-81
2021/06/06 04:39:30;;;;;;;87.70;46.00;;;;;;;15.57;100.00;100858.97;2057146;28;20066;-81
2021/06/06 04:40:31;;;;;;;92.13;48.93;;;;;;;15.60;100.00;100852.72;2058022;28;20142;-81
2021/06/06 04:41:31;;;;;;;99.37;53.03;;;;;;;15.59;100.00;100852.78;2057561;28;20030;-81
2021/06/06 04:42:31;;;;;;;107.77;53.23;;;;;;;15.65;100.00;100852.53;2057739;28;20027;-81
2021/06/06 04:43:32;;;;;;;110.60;56.60;;;;;;;15.66;100.00;100854.25;2057575;28;20035;-81
2021/06/06 04:44:32;;;;;;;108.60;57.93;;;;;;;15.66;100.00;100854.25;2057584;28;20050;-81
2021/06/06 04:45:33;;;;;;;121.23;60.77;;;;;;;15.66;100.00;100859.50;2057719;28;20034;-81
2021/06/06 04:46:33;;;;;;;118.38;62.90;;;;;;;15.68;100.00;100852.41;2057628;28;20030;-80
2021/06/06 04:47:33;;;;;;;120.93;62.33;;;;;;;15.69;100.00;100854.97;2056997;28;20034;-80
2021/06/06 04:48:38;;;;;;;117.43;59.87;;;;;;;15.70;100.00;100853.22;2057008;28;20129;-81
2021/06/06 04:49:41;;;;;;;115.60;61.78;;;;;;;15.71;100.00;100857.56;2057661;28;20485;-81
2021/06/06 04:50:44;;;;;;;138.27;64.85;;;;;;;15.71;100.00;100857.56;2057748;28;20033;-81
2021/06/06 04:51:44;;;;;;;110.18;60.72;;;;;;;15.70;100.00;100856.69;2057567;28;20111;-81
2021/06/06 04:52:46;;;;;;;114.83;60.80;;;;;;;15.71;100.00;100855.75;2057607;28;20398;-81